<?xml version="1.0" encoding="UTF-8" standalone="no" ?>
<gpx xmlns="http://www.topografix.com/GPX/1/1" xmlns:xsi="http://www.w3.org/2001/XMLSchema-instance" xsi:schemaLocation="http://www.topografix.com/GPX/1/1 http://www.topografix.com/GPX/1/1/gpx.xsd" version="1.1" creator="VisuGPX - https://www.visugpx.com">
  <metadata>
    <name>Davrinche20101</name>
    <desc><![CDATA[la partie 1 des repérages]]></desc>
  </metadata>
  <trk>
    <name><![CDATA[--Nébouzat-- OR-5370363:ser-fr04-b]]></name>
    <trkseg>
      <trkpt lat="45.70318" lon="2.91401">
        <ele>940</ele>
        <time>2015-10-17T14:43:41Z</time>
      </trkpt>
      <trkpt lat="45.70343" lon="2.91439">
        <ele>942</ele>
        <time>2015-10-17T14:45:41Z</time>
      </trkpt>
      <trkpt lat="45.70333" lon="2.91497">
        <ele>947</ele>
        <time>2015-10-17T14:47:41Z</time>
      </trkpt>
      <trkpt lat="45.70343" lon="2.9156">
        <ele>951</ele>
        <time>2015-10-17T14:49:41Z</time>
      </trkpt>
      <trkpt lat="45.70364" lon="2.91626">
        <ele>957</ele>
        <time>2015-10-17T14:51:41Z</time>
      </trkpt>
      <trkpt lat="45.70406" lon="2.9162">
        <ele>959</ele>
        <time>2015-10-17T14:53:41Z</time>
      </trkpt>
      <trkpt lat="45.70438" lon="2.91605">
        <ele>960</ele>
        <time>2015-10-17T14:55:41Z</time>
      </trkpt>
      <trkpt lat="45.70441" lon="2.91618">
        <ele>963</ele>
        <time>2015-10-17T14:57:41Z</time>
      </trkpt>
      <trkpt lat="45.70418" lon="2.91635">
        <ele>962</ele>
        <time>2015-10-17T14:59:41Z</time>
      </trkpt>
      <trkpt lat="45.70406" lon="2.91656">
        <ele>964</ele>
        <time>2015-10-17T15:01:41Z</time>
      </trkpt>
      <trkpt lat="45.70394" lon="2.91688">
        <ele>967</ele>
        <time>2015-10-17T15:03:41Z</time>
      </trkpt>
      <trkpt lat="45.70382" lon="2.91714">
        <ele>969</ele>
        <time>2015-10-17T15:05:41Z</time>
      </trkpt>
      <trkpt lat="45.7037" lon="2.91736">
        <ele>969</ele>
        <time>2015-10-17T15:07:41Z</time>
      </trkpt>
      <trkpt lat="45.70366" lon="2.91774">
        <ele>972</ele>
        <time>2015-10-17T15:09:41Z</time>
      </trkpt>
      <trkpt lat="45.70372" lon="2.918">
        <ele>975</ele>
        <time>2015-10-17T15:11:41Z</time>
      </trkpt>
      <trkpt lat="45.70403" lon="2.9174">
        <ele>976</ele>
        <time>2015-10-17T15:13:41Z</time>
      </trkpt>
      <trkpt lat="45.70423" lon="2.91804">
        <ele>985</ele>
        <time>2015-10-17T15:15:41Z</time>
      </trkpt>
      <trkpt lat="45.70436" lon="2.91858">
        <ele>989</ele>
        <time>2015-10-17T15:17:41Z</time>
      </trkpt>
      <trkpt lat="45.70451" lon="2.91892">
        <ele>991</ele>
        <time>2015-10-17T15:19:41Z</time>
      </trkpt>
      <trkpt lat="45.70463" lon="2.91965">
        <ele>997</ele>
        <time>2015-10-17T15:21:41Z</time>
      </trkpt>
      <trkpt lat="45.70486" lon="2.92027">
        <ele>1003</ele>
        <time>2015-10-17T15:23:41Z</time>
      </trkpt>
      <trkpt lat="45.70495" lon="2.92103">
        <ele>1008</ele>
        <time>2015-10-17T15:25:41Z</time>
      </trkpt>
      <trkpt lat="45.70492" lon="2.92178">
        <ele>1010</ele>
        <time>2015-10-17T15:27:41Z</time>
      </trkpt>
      <trkpt lat="45.70492" lon="2.92229">
        <ele>1012</ele>
        <time>2015-10-17T15:29:41Z</time>
      </trkpt>
      <trkpt lat="45.70493" lon="2.92298">
        <ele>1015</ele>
        <time>2015-10-17T15:31:41Z</time>
      </trkpt>
      <trkpt lat="45.70499" lon="2.92349">
        <ele>1017</ele>
        <time>2015-10-17T15:33:41Z</time>
      </trkpt>
      <trkpt lat="45.70498" lon="2.92388">
        <ele>1018</ele>
        <time>2015-10-17T15:35:41Z</time>
      </trkpt>
      <trkpt lat="45.70508" lon="2.92461">
        <ele>1022</ele>
        <time>2015-10-17T15:37:41Z</time>
      </trkpt>
      <trkpt lat="45.70487" lon="2.92525">
        <ele>1027</ele>
        <time>2015-10-17T15:39:41Z</time>
      </trkpt>
      <trkpt lat="45.70492" lon="2.9259">
        <ele>1030</ele>
        <time>2015-10-17T15:41:41Z</time>
      </trkpt>
      <trkpt lat="45.70486" lon="2.92635">
        <ele>1031</ele>
        <time>2015-10-17T15:43:41Z</time>
      </trkpt>
      <trkpt lat="45.70493" lon="2.92712">
        <ele>1034</ele>
        <time>2015-10-17T15:45:41Z</time>
      </trkpt>
      <trkpt lat="45.70505" lon="2.92798">
        <ele>1037</ele>
        <time>2015-10-17T15:47:41Z</time>
      </trkpt>
      <trkpt lat="45.70517" lon="2.92877">
        <ele>1038</ele>
        <time>2015-10-17T15:49:41Z</time>
      </trkpt>
      <trkpt lat="45.70535" lon="2.92933">
        <ele>1039</ele>
        <time>2015-10-17T15:51:41Z</time>
      </trkpt>
      <trkpt lat="45.7054" lon="2.92991">
        <ele>1040</ele>
        <time>2015-10-17T15:53:41Z</time>
      </trkpt>
      <trkpt lat="45.70532" lon="2.93012">
        <ele>1040</ele>
        <time>2015-10-17T15:55:41Z</time>
      </trkpt>
      <trkpt lat="45.70534" lon="2.93094">
        <ele>1042</ele>
        <time>2015-10-17T15:57:41Z</time>
      </trkpt>
      <trkpt lat="45.70538" lon="2.93141">
        <ele>1044</ele>
        <time>2015-10-17T15:59:41Z</time>
      </trkpt>
      <trkpt lat="45.70541" lon="2.93199">
        <ele>1046</ele>
        <time>2015-10-17T16:01:41Z</time>
      </trkpt>
      <trkpt lat="45.70546" lon="2.9324">
        <ele>1046</ele>
        <time>2015-10-17T16:03:41Z</time>
      </trkpt>
      <trkpt lat="45.70558" lon="2.93317">
        <ele>1047</ele>
        <time>2015-10-17T16:05:41Z</time>
      </trkpt>
      <trkpt lat="45.70594" lon="2.9342">
        <ele>1053</ele>
        <time>2015-10-17T16:07:41Z</time>
      </trkpt>
      <trkpt lat="45.70612" lon="2.93484">
        <ele>1057</ele>
        <time>2015-10-17T16:09:41Z</time>
      </trkpt>
      <trkpt lat="45.70634" lon="2.93575">
        <ele>1054</ele>
        <time>2015-10-17T16:11:41Z</time>
      </trkpt>
      <trkpt lat="45.70651" lon="2.93662">
        <ele>1052</ele>
        <time>2015-10-17T16:13:41Z</time>
      </trkpt>
      <trkpt lat="45.7067" lon="2.93727">
        <ele>1051</ele>
        <time>2015-10-17T16:15:41Z</time>
      </trkpt>
      <trkpt lat="45.70697" lon="2.93821">
        <ele>1051</ele>
        <time>2015-10-17T16:17:41Z</time>
      </trkpt>
      <trkpt lat="45.70703" lon="2.93851">
        <ele>1050</ele>
        <time>2015-10-17T16:19:41Z</time>
      </trkpt>
      <trkpt lat="45.70751" lon="2.93926">
        <ele>1046</ele>
        <time>2015-10-17T16:21:41Z</time>
      </trkpt>
      <trkpt lat="45.70811" lon="2.93999">
        <ele>1047</ele>
        <time>2015-10-17T16:23:41Z</time>
      </trkpt>
      <trkpt lat="45.70853" lon="2.94055">
        <ele>1047</ele>
        <time>2015-10-17T16:25:41Z</time>
      </trkpt>
      <trkpt lat="45.70905" lon="2.94102">
        <ele>1044</ele>
        <time>2015-10-17T16:27:41Z</time>
      </trkpt>
      <trkpt lat="45.70923" lon="2.94132">
        <ele>1044</ele>
        <time>2015-10-17T16:29:41Z</time>
      </trkpt>
      <trkpt lat="45.70938" lon="2.94175">
        <ele>1045</ele>
        <time>2015-10-17T16:31:41Z</time>
      </trkpt>
      <trkpt lat="45.70992" lon="2.94231">
        <ele>1042</ele>
        <time>2015-10-17T16:33:41Z</time>
      </trkpt>
      <trkpt lat="45.71045" lon="2.943">
        <ele>1045</ele>
        <time>2015-10-17T16:35:41Z</time>
      </trkpt>
      <trkpt lat="45.7103" lon="2.94351">
        <ele>1046</ele>
        <time>2015-10-17T16:37:41Z</time>
      </trkpt>
      <trkpt lat="45.71004" lon="2.94364">
        <ele>1046</ele>
        <time>2015-10-17T16:39:41Z</time>
      </trkpt>
      <trkpt lat="45.71003" lon="2.94411">
        <ele>1048</ele>
        <time>2015-10-17T16:41:41Z</time>
      </trkpt>
      <trkpt lat="45.71" lon="2.94446">
        <ele>1048</ele>
        <time>2015-10-17T16:43:41Z</time>
      </trkpt>
      <trkpt lat="45.70979" lon="2.94484">
        <ele>1049</ele>
        <time>2015-10-17T16:45:41Z</time>
      </trkpt>
      <trkpt lat="45.70962" lon="2.94525">
        <ele>1050</ele>
        <time>2015-10-17T16:47:41Z</time>
      </trkpt>
      <trkpt lat="45.70943" lon="2.94547">
        <ele>1050</ele>
        <time>2015-10-17T16:49:41Z</time>
      </trkpt>
      <trkpt lat="45.70919" lon="2.94577">
        <ele>1050</ele>
        <time>2015-10-17T16:51:41Z</time>
      </trkpt>
      <trkpt lat="45.70898" lon="2.946">
        <ele>1050</ele>
        <time>2015-10-17T16:53:41Z</time>
      </trkpt>
      <trkpt lat="45.70881" lon="2.94643">
        <ele>1050</ele>
        <time>2015-10-17T16:55:41Z</time>
      </trkpt>
      <trkpt lat="45.7085" lon="2.94692">
        <ele>1050</ele>
        <time>2015-10-17T16:57:41Z</time>
      </trkpt>
      <trkpt lat="45.70817" lon="2.94735">
        <ele>1050</ele>
        <time>2015-10-17T16:59:41Z</time>
      </trkpt>
      <trkpt lat="45.70811" lon="2.94748">
        <ele>1049</ele>
        <time>2015-10-17T17:01:41Z</time>
      </trkpt>
      <trkpt lat="45.70777" lon="2.94789">
        <ele>1048</ele>
        <time>2015-10-17T17:03:41Z</time>
      </trkpt>
      <trkpt lat="45.70735" lon="2.94849">
        <ele>1047</ele>
        <time>2015-10-17T17:05:41Z</time>
      </trkpt>
      <trkpt lat="45.70718" lon="2.94892">
        <ele>1047</ele>
        <time>2015-10-17T17:07:41Z</time>
      </trkpt>
      <trkpt lat="45.70706" lon="2.94933">
        <ele>1046</ele>
        <time>2015-10-17T17:09:41Z</time>
      </trkpt>
      <trkpt lat="45.70694" lon="2.94967">
        <ele>1044</ele>
        <time>2015-10-17T17:11:41Z</time>
      </trkpt>
      <trkpt lat="45.70675" lon="2.94997">
        <ele>1042</ele>
        <time>2015-10-17T17:13:41Z</time>
      </trkpt>
      <trkpt lat="45.7067" lon="2.95053">
        <ele>1041</ele>
        <time>2015-10-17T17:15:41Z</time>
      </trkpt>
      <trkpt lat="45.70669" lon="2.95124">
        <ele>1041</ele>
        <time>2015-10-17T17:17:41Z</time>
      </trkpt>
      <trkpt lat="45.70663" lon="2.95188">
        <ele>1041</ele>
        <time>2015-10-17T17:19:41Z</time>
      </trkpt>
      <trkpt lat="45.70634" lon="2.95244">
        <ele>1039</ele>
        <time>2015-10-17T17:21:41Z</time>
      </trkpt>
      <trkpt lat="45.70601" lon="2.95287">
        <ele>1032</ele>
        <time>2015-10-17T17:23:41Z</time>
      </trkpt>
      <trkpt lat="45.70651" lon="2.95315">
        <ele>1041</ele>
        <time>2015-10-17T17:25:41Z</time>
      </trkpt>
      <trkpt lat="45.70682" lon="2.9531">
        <ele>1048</ele>
        <time>2015-10-17T17:27:41Z</time>
      </trkpt>
      <trkpt lat="45.70711" lon="2.9533">
        <ele>1057</ele>
        <time>2015-10-17T17:29:41Z</time>
      </trkpt>
      <trkpt lat="45.70753" lon="2.9533">
        <ele>1069</ele>
        <time>2015-10-17T17:31:41Z</time>
      </trkpt>
      <trkpt lat="45.70796" lon="2.95325">
        <ele>1080</ele>
        <time>2015-10-17T17:33:41Z</time>
      </trkpt>
      <trkpt lat="45.70827" lon="2.95334">
        <ele>1088</ele>
        <time>2015-10-17T17:35:41Z</time>
      </trkpt>
      <trkpt lat="45.70889" lon="2.95343">
        <ele>1103</ele>
        <time>2015-10-17T17:37:41Z</time>
      </trkpt>
      <trkpt lat="45.70904" lon="2.9534">
        <ele>1109</ele>
        <time>2015-10-17T17:39:41Z</time>
      </trkpt>
      <trkpt lat="45.70931" lon="2.95321">
        <ele>1115</ele>
        <time>2015-10-17T17:41:41Z</time>
      </trkpt>
      <trkpt lat="45.71012" lon="2.95334">
        <ele>1131</ele>
        <time>2015-10-17T17:43:41Z</time>
      </trkpt>
      <trkpt lat="45.71046" lon="2.95362">
        <ele>1127</ele>
        <time>2015-10-17T17:45:41Z</time>
      </trkpt>
      <trkpt lat="45.71093" lon="2.95379">
        <ele>1128</ele>
        <time>2015-10-17T17:47:41Z</time>
      </trkpt>
      <trkpt lat="45.71127" lon="2.95426">
        <ele>1134</ele>
        <time>2015-10-17T17:49:41Z</time>
      </trkpt>
      <trkpt lat="45.71147" lon="2.95467">
        <ele>1141</ele>
        <time>2015-10-17T17:51:41Z</time>
      </trkpt>
      <trkpt lat="45.71162" lon="2.95497">
        <ele>1150</ele>
        <time>2015-10-17T17:53:41Z</time>
      </trkpt>
      <trkpt lat="45.71175" lon="2.95559">
        <ele>1158</ele>
        <time>2015-10-17T17:55:41Z</time>
      </trkpt>
      <trkpt lat="45.71171" lon="2.95583">
        <ele>1161</ele>
        <time>2015-10-17T17:57:41Z</time>
      </trkpt>
      <trkpt lat="45.71172" lon="2.95617">
        <ele>1162</ele>
        <time>2015-10-17T17:59:41Z</time>
      </trkpt>
      <trkpt lat="45.71168" lon="2.95662">
        <ele>1163</ele>
        <time>2015-10-17T18:01:41Z</time>
      </trkpt>
      <trkpt lat="45.71154" lon="2.95682">
        <ele>1160</ele>
        <time>2015-10-17T18:03:41Z</time>
      </trkpt>
      <trkpt lat="45.71142" lon="2.95705">
        <ele>1158</ele>
        <time>2015-10-17T18:05:41Z</time>
      </trkpt>
      <trkpt lat="45.71132" lon="2.95759">
        <ele>1161</ele>
        <time>2015-10-17T18:07:41Z</time>
      </trkpt>
      <trkpt lat="45.71124" lon="2.9578">
        <ele>1160</ele>
        <time>2015-10-17T18:09:41Z</time>
      </trkpt>
      <trkpt lat="45.71099" lon="2.95817">
        <ele>1164</ele>
        <time>2015-10-17T18:11:41Z</time>
      </trkpt>
      <trkpt lat="45.71093" lon="2.95855">
        <ele>1162</ele>
        <time>2015-10-17T18:13:41Z</time>
      </trkpt>
      <trkpt lat="45.71076" lon="2.95881">
        <ele>1158</ele>
        <time>2015-10-17T18:15:41Z</time>
      </trkpt>
      <trkpt lat="45.71057" lon="2.95898">
        <ele>1156</ele>
        <time>2015-10-17T18:17:41Z</time>
      </trkpt>
      <trkpt lat="45.71031" lon="2.95935">
        <ele>1148</ele>
        <time>2015-10-17T18:19:41Z</time>
      </trkpt>
      <trkpt lat="45.70994" lon="2.95954">
        <ele>1145</ele>
        <time>2015-10-17T18:21:41Z</time>
      </trkpt>
      <trkpt lat="45.70958" lon="2.95973">
        <ele>1134</ele>
        <time>2015-10-17T18:23:41Z</time>
      </trkpt>
      <trkpt lat="45.70941" lon="2.95982">
        <ele>1129</ele>
        <time>2015-10-17T18:25:41Z</time>
      </trkpt>
      <trkpt lat="45.70907" lon="2.95971">
        <ele>1126</ele>
        <time>2015-10-17T18:27:41Z</time>
      </trkpt>
      <trkpt lat="45.70878" lon="2.95961">
        <ele>1120</ele>
        <time>2015-10-17T18:29:41Z</time>
      </trkpt>
      <trkpt lat="45.70848" lon="2.9595">
        <ele>1113</ele>
        <time>2015-10-17T18:31:41Z</time>
      </trkpt>
      <trkpt lat="45.70814" lon="2.95941">
        <ele>1106</ele>
        <time>2015-10-17T18:33:41Z</time>
      </trkpt>
      <trkpt lat="45.70784" lon="2.95931">
        <ele>1102</ele>
        <time>2015-10-17T18:35:41Z</time>
      </trkpt>
      <trkpt lat="45.70784" lon="2.95952">
        <ele>1101</ele>
        <time>2015-10-17T18:37:41Z</time>
      </trkpt>
      <trkpt lat="45.70732" lon="2.95941">
        <ele>1099</ele>
        <time>2015-10-17T18:39:41Z</time>
      </trkpt>
      <trkpt lat="45.70739" lon="2.9598">
        <ele>1101</ele>
        <time>2015-10-17T18:41:41Z</time>
      </trkpt>
      <trkpt lat="45.70753" lon="2.96038">
        <ele>1102</ele>
        <time>2015-10-17T18:43:41Z</time>
      </trkpt>
      <trkpt lat="45.70711" lon="2.96034">
        <ele>1110</ele>
        <time>2015-10-17T18:45:41Z</time>
      </trkpt>
      <trkpt lat="45.7069" lon="2.96061">
        <ele>1116</ele>
        <time>2015-10-17T18:47:41Z</time>
      </trkpt>
      <trkpt lat="45.70663" lon="2.96092">
        <ele>1121</ele>
        <time>2015-10-17T18:49:41Z</time>
      </trkpt>
      <trkpt lat="45.70672" lon="2.96137">
        <ele>1126</ele>
        <time>2015-10-17T18:51:41Z</time>
      </trkpt>
      <trkpt lat="45.70666" lon="2.96188">
        <ele>1132</ele>
        <time>2015-10-17T18:53:41Z</time>
      </trkpt>
      <trkpt lat="45.70651" lon="2.96225">
        <ele>1132</ele>
        <time>2015-10-17T18:55:41Z</time>
      </trkpt>
      <trkpt lat="45.70622" lon="2.9627">
        <ele>1135</ele>
        <time>2015-10-17T18:57:41Z</time>
      </trkpt>
      <trkpt lat="45.70589" lon="2.963">
        <ele>1140</ele>
        <time>2015-10-17T18:59:41Z</time>
      </trkpt>
      <trkpt lat="45.70555" lon="2.96317">
        <ele>1142</ele>
        <time>2015-10-17T19:01:41Z</time>
      </trkpt>
      <trkpt lat="45.70529" lon="2.96325">
        <ele>1143</ele>
        <time>2015-10-17T19:03:41Z</time>
      </trkpt>
      <trkpt lat="45.7049" lon="2.96332">
        <ele>1142</ele>
        <time>2015-10-17T19:05:41Z</time>
      </trkpt>
      <trkpt lat="45.7046" lon="2.96319">
        <ele>1130</ele>
        <time>2015-10-17T19:07:41Z</time>
      </trkpt>
      <trkpt lat="45.70421" lon="2.96285">
        <ele>1116</ele>
        <time>2015-10-17T19:09:41Z</time>
      </trkpt>
      <trkpt lat="45.70396" lon="2.96265">
        <ele>1105</ele>
        <time>2015-10-17T19:11:41Z</time>
      </trkpt>
      <trkpt lat="45.70387" lon="2.96237">
        <ele>1097</ele>
        <time>2015-10-17T19:13:41Z</time>
      </trkpt>
      <trkpt lat="45.7036" lon="2.96225">
        <ele>1086</ele>
        <time>2015-10-17T19:15:41Z</time>
      </trkpt>
      <trkpt lat="45.70363" lon="2.96158">
        <ele>1069</ele>
        <time>2015-10-17T19:17:41Z</time>
      </trkpt>
      <trkpt lat="45.70336" lon="2.96154">
        <ele>1065</ele>
        <time>2015-10-17T19:19:41Z</time>
      </trkpt>
      <trkpt lat="45.70306" lon="2.96152">
        <ele>1053</ele>
        <time>2015-10-17T19:21:41Z</time>
      </trkpt>
      <trkpt lat="45.70275" lon="2.96164">
        <ele>1043</ele>
        <time>2015-10-17T19:23:41Z</time>
      </trkpt>
      <trkpt lat="45.70254" lon="2.96203">
        <ele>1037</ele>
        <time>2015-10-17T19:25:41Z</time>
      </trkpt>
      <trkpt lat="45.70228" lon="2.9625">
        <ele>1029</ele>
        <time>2015-10-17T19:27:41Z</time>
      </trkpt>
      <trkpt lat="45.7021" lon="2.96308">
        <ele>1020</ele>
        <time>2015-10-17T19:29:41Z</time>
      </trkpt>
      <trkpt lat="45.70189" lon="2.96353">
        <ele>1012</ele>
        <time>2015-10-17T19:31:41Z</time>
      </trkpt>
      <trkpt lat="45.70171" lon="2.96366">
        <ele>1007</ele>
        <time>2015-10-17T19:33:41Z</time>
      </trkpt>
      <trkpt lat="45.70147" lon="2.96362">
        <ele>1005</ele>
        <time>2015-10-17T19:35:41Z</time>
      </trkpt>
      <trkpt lat="45.70116" lon="2.96355">
        <ele>1005</ele>
        <time>2015-10-17T19:37:41Z</time>
      </trkpt>
      <trkpt lat="45.70074" lon="2.9633">
        <ele>1005</ele>
        <time>2015-10-17T19:39:41Z</time>
      </trkpt>
      <trkpt lat="45.70101" lon="2.96252">
        <ele>1003</ele>
        <time>2015-10-17T19:41:41Z</time>
      </trkpt>
      <trkpt lat="45.70129" lon="2.96177">
        <ele>1002</ele>
        <time>2015-10-17T19:43:41Z</time>
      </trkpt>
      <trkpt lat="45.70156" lon="2.96115">
        <ele>999</ele>
        <time>2015-10-17T19:45:41Z</time>
      </trkpt>
      <trkpt lat="45.70191" lon="2.96055">
        <ele>1000</ele>
        <time>2015-10-17T19:47:41Z</time>
      </trkpt>
      <trkpt lat="45.70234" lon="2.95984">
        <ele>998</ele>
        <time>2015-10-17T19:49:41Z</time>
      </trkpt>
      <trkpt lat="45.7029" lon="2.95911">
        <ele>995</ele>
        <time>2015-10-17T19:51:41Z</time>
      </trkpt>
      <trkpt lat="45.70308" lon="2.95883">
        <ele>996</ele>
        <time>2015-10-17T19:53:41Z</time>
      </trkpt>
      <trkpt lat="45.70342" lon="2.95828">
        <ele>998</ele>
        <time>2015-10-17T19:55:41Z</time>
      </trkpt>
      <trkpt lat="45.70351" lon="2.95789">
        <ele>999</ele>
        <time>2015-10-17T19:57:41Z</time>
      </trkpt>
      <trkpt lat="45.70373" lon="2.9575">
        <ele>1000</ele>
        <time>2015-10-17T19:59:41Z</time>
      </trkpt>
      <trkpt lat="45.70379" lon="2.95701">
        <ele>998</ele>
        <time>2015-10-17T20:01:41Z</time>
      </trkpt>
      <trkpt lat="45.70402" lon="2.95658">
        <ele>997</ele>
        <time>2015-10-17T20:03:41Z</time>
      </trkpt>
      <trkpt lat="45.7042" lon="2.95619">
        <ele>998</ele>
        <time>2015-10-17T20:05:41Z</time>
      </trkpt>
      <trkpt lat="45.70457" lon="2.95581">
        <ele>1000</ele>
        <time>2015-10-17T20:07:41Z</time>
      </trkpt>
      <trkpt lat="45.70466" lon="2.9551">
        <ele>1006</ele>
        <time>2015-10-17T20:09:41Z</time>
      </trkpt>
      <trkpt lat="45.70471" lon="2.95471">
        <ele>1009</ele>
        <time>2015-10-17T20:11:41Z</time>
      </trkpt>
      <trkpt lat="45.70501" lon="2.95401">
        <ele>1014</ele>
        <time>2015-10-17T20:13:41Z</time>
      </trkpt>
      <trkpt lat="45.70561" lon="2.95347">
        <ele>1024</ele>
        <time>2015-10-17T20:15:41Z</time>
      </trkpt>
      <trkpt lat="45.70594" lon="2.95313">
        <ele>1030</ele>
        <time>2015-10-17T20:17:41Z</time>
      </trkpt>
      <trkpt lat="45.70622" lon="2.95265">
        <ele>1037</ele>
        <time>2015-10-17T20:19:41Z</time>
      </trkpt>
      <trkpt lat="45.70648" lon="2.95222">
        <ele>1040</ele>
        <time>2015-10-17T20:21:41Z</time>
      </trkpt>
      <trkpt lat="45.70666" lon="2.95158">
        <ele>1041</ele>
        <time>2015-10-17T20:23:41Z</time>
      </trkpt>
      <trkpt lat="45.70688" lon="2.95177">
        <ele>1044</ele>
        <time>2015-10-17T20:25:41Z</time>
      </trkpt>
      <trkpt lat="45.70702" lon="2.95203">
        <ele>1048</ele>
        <time>2015-10-17T20:27:41Z</time>
      </trkpt>
      <trkpt lat="45.70721" lon="2.95237">
        <ele>1055</ele>
        <time>2015-10-17T20:29:41Z</time>
      </trkpt>
      <trkpt lat="45.70763" lon="2.9522">
        <ele>1062</ele>
        <time>2015-10-17T20:31:41Z</time>
      </trkpt>
      <trkpt lat="45.70811" lon="2.95175">
        <ele>1063</ele>
        <time>2015-10-17T20:33:41Z</time>
      </trkpt>
      <trkpt lat="45.70857" lon="2.9513">
        <ele>1064</ele>
        <time>2015-10-17T20:35:41Z</time>
      </trkpt>
      <trkpt lat="45.70893" lon="2.95104">
        <ele>1066</ele>
        <time>2015-10-17T20:37:41Z</time>
      </trkpt>
      <trkpt lat="45.70964" lon="2.95066">
        <ele>1068</ele>
        <time>2015-10-17T20:39:41Z</time>
      </trkpt>
      <trkpt lat="45.71015" lon="2.95066">
        <ele>1071</ele>
        <time>2015-10-17T20:41:41Z</time>
      </trkpt>
      <trkpt lat="45.71061" lon="2.95072">
        <ele>1073</ele>
        <time>2015-10-17T20:43:41Z</time>
      </trkpt>
      <trkpt lat="45.7113" lon="2.95085">
        <ele>1074</ele>
        <time>2015-10-17T20:45:41Z</time>
      </trkpt>
      <trkpt lat="45.71195" lon="2.95079">
        <ele>1072</ele>
        <time>2015-10-17T20:47:41Z</time>
      </trkpt>
      <trkpt lat="45.71261" lon="2.95062">
        <ele>1067</ele>
        <time>2015-10-17T20:49:41Z</time>
      </trkpt>
      <trkpt lat="45.71307" lon="2.95047">
        <ele>1064</ele>
        <time>2015-10-17T20:51:41Z</time>
      </trkpt>
      <trkpt lat="45.71323" lon="2.95012">
        <ele>1062</ele>
        <time>2015-10-17T20:53:41Z</time>
      </trkpt>
      <trkpt lat="45.71332" lon="2.94956">
        <ele>1059</ele>
        <time>2015-10-17T20:55:41Z</time>
      </trkpt>
      <trkpt lat="45.71329" lon="2.94911">
        <ele>1057</ele>
        <time>2015-10-17T20:57:41Z</time>
      </trkpt>
      <trkpt lat="45.71337" lon="2.94858">
        <ele>1055</ele>
        <time>2015-10-17T20:59:41Z</time>
      </trkpt>
      <trkpt lat="45.71335" lon="2.9481">
        <ele>1054</ele>
        <time>2015-10-17T21:01:41Z</time>
      </trkpt>
      <trkpt lat="45.71332" lon="2.94723">
        <ele>1056</ele>
        <time>2015-10-17T21:03:41Z</time>
      </trkpt>
      <trkpt lat="45.71298" lon="2.94697">
        <ele>1055</ele>
        <time>2015-10-17T21:05:41Z</time>
      </trkpt>
      <trkpt lat="45.7127" lon="2.94677">
        <ele>1054</ele>
        <time>2015-10-17T21:07:41Z</time>
      </trkpt>
      <trkpt lat="45.71237" lon="2.94654">
        <ele>1054</ele>
        <time>2015-10-17T21:09:41Z</time>
      </trkpt>
      <trkpt lat="45.7121" lon="2.94626">
        <ele>1055</ele>
        <time>2015-10-17T21:11:41Z</time>
      </trkpt>
      <trkpt lat="45.71195" lon="2.946">
        <ele>1055</ele>
        <time>2015-10-17T21:13:41Z</time>
      </trkpt>
      <trkpt lat="45.71178" lon="2.94555">
        <ele>1053</ele>
        <time>2015-10-17T21:15:41Z</time>
      </trkpt>
      <trkpt lat="45.71151" lon="2.94521">
        <ele>1051</ele>
        <time>2015-10-17T21:17:41Z</time>
      </trkpt>
      <trkpt lat="45.71123" lon="2.94489">
        <ele>1050</ele>
        <time>2015-10-17T21:19:41Z</time>
      </trkpt>
      <trkpt lat="45.71105" lon="2.94452">
        <ele>1049</ele>
        <time>2015-10-17T21:21:41Z</time>
      </trkpt>
      <trkpt lat="45.71091" lon="2.94411">
        <ele>1049</ele>
        <time>2015-10-17T21:23:41Z</time>
      </trkpt>
      <trkpt lat="45.71066" lon="2.94326">
        <ele>1046</ele>
        <time>2015-10-17T21:25:41Z</time>
      </trkpt>
      <trkpt lat="45.71055" lon="2.94311">
        <ele>1045</ele>
        <time>2015-10-17T21:27:41Z</time>
      </trkpt>
      <trkpt lat="45.71084" lon="2.94253">
        <ele>1044</ele>
        <time>2015-10-17T21:29:41Z</time>
      </trkpt>
      <trkpt lat="45.71111" lon="2.94205">
        <ele>1042</ele>
        <time>2015-10-17T21:31:41Z</time>
      </trkpt>
      <trkpt lat="45.71141" lon="2.94135">
        <ele>1043</ele>
        <time>2015-10-17T21:33:41Z</time>
      </trkpt>
      <trkpt lat="45.71177" lon="2.9407">
        <ele>1046</ele>
        <time>2015-10-17T21:35:41Z</time>
      </trkpt>
      <trkpt lat="45.7121" lon="2.9401">
        <ele>1048</ele>
        <time>2015-10-17T21:37:41Z</time>
      </trkpt>
      <trkpt lat="45.71205" lon="2.93952">
        <ele>1047</ele>
        <time>2015-10-17T21:39:41Z</time>
      </trkpt>
      <trkpt lat="45.71207" lon="2.93873">
        <ele>1050</ele>
        <time>2015-10-17T21:41:41Z</time>
      </trkpt>
      <trkpt lat="45.71192" lon="2.93813">
        <ele>1056</ele>
        <time>2015-10-17T21:43:41Z</time>
      </trkpt>
      <trkpt lat="45.71228" lon="2.93776">
        <ele>1055</ele>
        <time>2015-10-17T21:45:41Z</time>
      </trkpt>
      <trkpt lat="45.71259" lon="2.93742">
        <ele>1054</ele>
        <time>2015-10-17T21:47:41Z</time>
      </trkpt>
      <trkpt lat="45.71284" lon="2.9371">
        <ele>1053</ele>
        <time>2015-10-17T21:49:41Z</time>
      </trkpt>
      <trkpt lat="45.7131" lon="2.93675">
        <ele>1050</ele>
        <time>2015-10-17T21:51:41Z</time>
      </trkpt>
      <trkpt lat="45.71334" lon="2.93609">
        <ele>1047</ele>
        <time>2015-10-17T21:53:41Z</time>
      </trkpt>
      <trkpt lat="45.71352" lon="2.93555">
        <ele>1046</ele>
        <time>2015-10-17T21:55:41Z</time>
      </trkpt>
      <trkpt lat="45.71371" lon="2.93517">
        <ele>1043</ele>
        <time>2015-10-17T21:57:41Z</time>
      </trkpt>
      <trkpt lat="45.71391" lon="2.93461">
        <ele>1040</ele>
        <time>2015-10-17T21:59:41Z</time>
      </trkpt>
      <trkpt lat="45.71392" lon="2.93399">
        <ele>1039</ele>
        <time>2015-10-17T22:01:41Z</time>
      </trkpt>
      <trkpt lat="45.71392" lon="2.93369">
        <ele>1037</ele>
        <time>2015-10-17T22:03:41Z</time>
      </trkpt>
      <trkpt lat="45.71392" lon="2.93323">
        <ele>1035</ele>
        <time>2015-10-17T22:05:41Z</time>
      </trkpt>
      <trkpt lat="45.71394" lon="2.93268">
        <ele>1030</ele>
        <time>2015-10-17T22:07:41Z</time>
      </trkpt>
      <trkpt lat="45.71394" lon="2.93238">
        <ele>1027</ele>
        <time>2015-10-17T22:09:41Z</time>
      </trkpt>
      <trkpt lat="45.71383" lon="2.93199">
        <ele>1027</ele>
        <time>2015-10-17T22:11:41Z</time>
      </trkpt>
      <trkpt lat="45.71379" lon="2.93143">
        <ele>1023</ele>
        <time>2015-10-17T22:13:41Z</time>
      </trkpt>
      <trkpt lat="45.71374" lon="2.93077">
        <ele>1019</ele>
        <time>2015-10-17T22:15:41Z</time>
      </trkpt>
      <trkpt lat="45.71365" lon="2.93032">
        <ele>1018</ele>
        <time>2015-10-17T22:17:41Z</time>
      </trkpt>
      <trkpt lat="45.71353" lon="2.92987">
        <ele>1016</ele>
        <time>2015-10-17T22:19:41Z</time>
      </trkpt>
      <trkpt lat="45.7134" lon="2.92944">
        <ele>1013</ele>
        <time>2015-10-17T22:21:41Z</time>
      </trkpt>
      <trkpt lat="45.71328" lon="2.92896">
        <ele>1010</ele>
        <time>2015-10-17T22:23:41Z</time>
      </trkpt>
      <trkpt lat="45.7131" lon="2.92843">
        <ele>1008</ele>
        <time>2015-10-17T22:25:41Z</time>
      </trkpt>
      <trkpt lat="45.71287" lon="2.92796">
        <ele>1006</ele>
        <time>2015-10-17T22:27:41Z</time>
      </trkpt>
      <trkpt lat="45.71279" lon="2.92772">
        <ele>1004</ele>
        <time>2015-10-17T22:29:41Z</time>
      </trkpt>
      <trkpt lat="45.71249" lon="2.92772">
        <ele>1005</ele>
        <time>2015-10-17T22:31:41Z</time>
      </trkpt>
      <trkpt lat="45.71223" lon="2.92757">
        <ele>1006</ele>
        <time>2015-10-17T22:33:41Z</time>
      </trkpt>
      <trkpt lat="45.71183" lon="2.92738">
        <ele>1008</ele>
        <time>2015-10-17T22:35:41Z</time>
      </trkpt>
      <trkpt lat="45.7115" lon="2.92723">
        <ele>1009</ele>
        <time>2015-10-17T22:37:41Z</time>
      </trkpt>
      <trkpt lat="45.71123" lon="2.92712">
        <ele>1011</ele>
        <time>2015-10-17T22:39:41Z</time>
      </trkpt>
      <trkpt lat="45.71111" lon="2.92705">
        <ele>1011</ele>
        <time>2015-10-17T22:41:41Z</time>
      </trkpt>
      <trkpt lat="45.71114" lon="2.92663">
        <ele>1006</ele>
        <time>2015-10-17T22:43:41Z</time>
      </trkpt>
      <trkpt lat="45.71129" lon="2.92594">
        <ele>999</ele>
        <time>2015-10-17T22:45:41Z</time>
      </trkpt>
      <trkpt lat="45.71138" lon="2.92523">
        <ele>996</ele>
        <time>2015-10-17T22:47:41Z</time>
      </trkpt>
      <trkpt lat="45.71115" lon="2.92446">
        <ele>994</ele>
        <time>2015-10-17T22:49:41Z</time>
      </trkpt>
      <trkpt lat="45.71088" lon="2.92401">
        <ele>993</ele>
        <time>2015-10-17T22:51:41Z</time>
      </trkpt>
      <trkpt lat="45.71081" lon="2.9236">
        <ele>992</ele>
        <time>2015-10-17T22:53:41Z</time>
      </trkpt>
      <trkpt lat="45.71088" lon="2.923">
        <ele>992</ele>
        <time>2015-10-17T22:55:41Z</time>
      </trkpt>
      <trkpt lat="45.71081" lon="2.92167">
        <ele>991</ele>
        <time>2015-10-17T22:57:41Z</time>
      </trkpt>
      <trkpt lat="45.71058" lon="2.92081">
        <ele>995</ele>
        <time>2015-10-17T22:59:41Z</time>
      </trkpt>
      <trkpt lat="45.71042" lon="2.9204">
        <ele>996</ele>
        <time>2015-10-17T23:01:41Z</time>
      </trkpt>
      <trkpt lat="45.71006" lon="2.91948">
        <ele>996</ele>
        <time>2015-10-17T23:03:41Z</time>
      </trkpt>
      <trkpt lat="45.70973" lon="2.91894">
        <ele>995</ele>
        <time>2015-10-17T23:05:41Z</time>
      </trkpt>
      <trkpt lat="45.70958" lon="2.91856">
        <ele>994</ele>
        <time>2015-10-17T23:07:41Z</time>
      </trkpt>
      <trkpt lat="45.70953" lon="2.91802">
        <ele>992</ele>
        <time>2015-10-17T23:09:41Z</time>
      </trkpt>
      <trkpt lat="45.70946" lon="2.91721">
        <ele>988</ele>
        <time>2015-10-17T23:11:41Z</time>
      </trkpt>
      <trkpt lat="45.70938" lon="2.91671">
        <ele>986</ele>
        <time>2015-10-17T23:13:41Z</time>
      </trkpt>
      <trkpt lat="45.70932" lon="2.91615">
        <ele>984</ele>
        <time>2015-10-17T23:15:41Z</time>
      </trkpt>
      <trkpt lat="45.70922" lon="2.91521">
        <ele>977</ele>
        <time>2015-10-17T23:17:41Z</time>
      </trkpt>
      <trkpt lat="45.70934" lon="2.91478">
        <ele>972</ele>
        <time>2015-10-17T23:19:41Z</time>
      </trkpt>
      <trkpt lat="45.70902" lon="2.91476">
        <ele>973</ele>
        <time>2015-10-17T23:21:41Z</time>
      </trkpt>
      <trkpt lat="45.70866" lon="2.91478">
        <ele>972</ele>
        <time>2015-10-17T23:23:41Z</time>
      </trkpt>
      <trkpt lat="45.70836" lon="2.91474">
        <ele>970</ele>
        <time>2015-10-17T23:25:41Z</time>
      </trkpt>
      <trkpt lat="45.7081" lon="2.91446">
        <ele>965</ele>
        <time>2015-10-17T23:27:41Z</time>
      </trkpt>
      <trkpt lat="45.70778" lon="2.91416">
        <ele>957</ele>
        <time>2015-10-17T23:29:41Z</time>
      </trkpt>
      <trkpt lat="45.70747" lon="2.91412">
        <ele>954</ele>
        <time>2015-10-17T23:31:41Z</time>
      </trkpt>
      <trkpt lat="45.707" lon="2.91394">
        <ele>950</ele>
        <time>2015-10-17T23:33:41Z</time>
      </trkpt>
      <trkpt lat="45.7067" lon="2.9136">
        <ele>945</ele>
        <time>2015-10-17T23:35:41Z</time>
      </trkpt>
      <trkpt lat="45.70627" lon="2.91367">
        <ele>944</ele>
        <time>2015-10-17T23:37:41Z</time>
      </trkpt>
      <trkpt lat="45.706" lon="2.91354">
        <ele>941</ele>
        <time>2015-10-17T23:39:41Z</time>
      </trkpt>
      <trkpt lat="45.70582" lon="2.91362">
        <ele>942</ele>
        <time>2015-10-17T23:41:41Z</time>
      </trkpt>
      <trkpt lat="45.70558" lon="2.91397">
        <ele>944</ele>
        <time>2015-10-17T23:43:41Z</time>
      </trkpt>
      <trkpt lat="45.70523" lon="2.91437">
        <ele>946</ele>
        <time>2015-10-17T23:45:41Z</time>
      </trkpt>
      <trkpt lat="45.70505" lon="2.91467">
        <ele>947</ele>
        <time>2015-10-17T23:47:41Z</time>
      </trkpt>
      <trkpt lat="45.70468" lon="2.91517">
        <ele>951</ele>
        <time>2015-10-17T23:49:41Z</time>
      </trkpt>
      <trkpt lat="45.70453" lon="2.91455">
        <ele>943</ele>
        <time>2015-10-17T23:51:41Z</time>
      </trkpt>
      <trkpt lat="45.7042" lon="2.91439">
        <ele>941</ele>
        <time>2015-10-17T23:53:41Z</time>
      </trkpt>
      <trkpt lat="45.70393" lon="2.91367">
        <ele>935</ele>
        <time>2015-10-17T23:55:41Z</time>
      </trkpt>
    </trkseg>
  </trk>
</gpx>